createdAt,value
2022-07-29T00:00:06.538Z,58.92
2022-07-29T00:02:33.621Z,59.11
2022-07-29T00:05:00.602Z,59.28
2022-07-29T00:07:27.934Z,59.40
2022-07-29T00:09:54.872Z,59.48
2022-07-29T00:12:26.170Z,59.41
2022-07-29T00:14:57.622Z,59.51
2022-07-29T00:17:25.588Z,59.68
2022-07-29T00:19:53.390Z,59.84
2022-07-29T00:22:21.216Z,60.07
2022-07-29T00:24:51.132Z,60.19
2022-07-29T00:27:19.192Z,60.16
2022-07-29T00:29:46.344Z,60.24
2022-07-29T00:32:13.304Z,60.32
2022-07-29T00:34:59.489Z,60.31
2022-07-29T00:37:26.837Z,60.52
2022-07-29T00:39:53.634Z,60.65
2022-07-29T00:42:21.063Z,60.69
2022-07-29T00:44:47.984Z,60.70
2022-07-29T00:47:15.147Z,60.69
2022-07-29T00:49:43.151Z,60.94
2022-07-29T00:52:11.538Z,60.95
2022-07-29T00:54:44.406Z,61.23
2022-07-29T00:57:13.191Z,61.22
2022-07-29T00:59:40.254Z,61.34
2022-07-29T01:02:07.195Z,61.46
2022-07-29T01:04:34.668Z,61.44
2022-07-29T01:07:05.301Z,61.49
2022-07-29T01:09:45.774Z,61.51
2022-07-29T01:12:24.691Z,61.49
2022-07-29T01:14:53.463Z,61.59
2022-07-29T01:17:27.354Z,61.61
2022-07-29T01:20:05.312Z,61.70
2022-07-29T01:22:35.134Z,61.62
2022-07-29T01:25:39.881Z,61.50
2022-07-29T01:28:24.264Z,61.80
2022-07-29T01:30:55.389Z,62.10
2022-07-29T01:33:45.555Z,61.97
2022-07-29T01:36:17.933Z,62.15
2022-07-29T01:38:51.228Z,62.14
2022-07-29T01:41:21.291Z,62.37
2022-07-29T01:43:56.001Z,62.30
2022-07-29T01:46:30.608Z,62.43
2022-07-29T01:49:10.104Z,62.56
2022-07-29T01:51:52.943Z,62.46
2022-07-29T01:54:38.950Z,62.60
2022-07-29T01:57:09.447Z,62.74
2022-07-29T01:59:38.581Z,62.55
2022-07-29T02:02:09.533Z,62.81
2022-07-29T02:04:38.660Z,63.08
2022-07-29T02:07:08.433Z,63.17
2022-07-29T02:09:39.106Z,63.37
2022-07-29T02:12:08.611Z,63.41
2022-07-29T02:14:41.836Z,63.73
2022-07-29T02:17:09.396Z,63.90
2022-07-29T02:19:40.232Z,63.92
2022-07-29T02:22:08.658Z,63.79
2022-07-29T02:24:38.532Z,64.06
2022-07-29T02:27:05.431Z,64.13
2022-07-29T02:29:33.849Z,64.18
2022-07-29T02:32:04.588Z,64.33
2022-07-29T02:34:32.989Z,64.34
2022-07-29T02:37:01.143Z,64.36
2022-07-29T02:39:30.548Z,64.38
2022-07-29T02:42:04.873Z,64.46
2022-07-29T02:44:34.871Z,64.54
2022-07-29T02:47:11.060Z,64.62
2022-07-29T02:49:39.942Z,64.76
2022-07-29T02:52:17.318Z,64.58
2022-07-29T02:54:54.989Z,64.63
2022-07-29T02:57:28.124Z,64.73
2022-07-29T03:00:00.197Z,64.82
2022-07-29T03:02:28.660Z,64.95
2022-07-29T03:05:00.967Z,65.10
2022-07-29T03:07:29.002Z,64.97
2022-07-29T03:09:56.836Z,65.38
2022-07-29T03:12:24.865Z,65.35
2022-07-29T03:14:52.722Z,65.29
2022-07-29T03:17:20.079Z,65.41
2022-07-29T03:19:47.518Z,65.41
2022-07-29T03:22:15.174Z,65.43
2022-07-29T03:24:46.432Z,65.48
2022-07-29T03:27:14.548Z,65.75
2022-07-29T03:29:41.349Z,65.85
2022-07-29T03:32:16.471Z,65.99
2022-07-29T03:34:50.901Z,66.13
2022-07-29T03:37:17.925Z,66.02
2022-07-29T03:39:46.937Z,66.29
2022-07-29T03:42:17.856Z,66.38
2022-07-29T03:44:48.730Z,66.27
2022-07-29T03:47:18.614Z,66.55
2022-07-29T03:49:51.635Z,66.63
2022-07-29T03:52:19.354Z,66.82
2022-07-29T03:54:46.815Z,66.84
2022-07-29T03:57:15.810Z,66.90
2022-07-29T03:59:44.392Z,67.11
2022-07-29T04:02:14.871Z,67.16
2022-07-29T04:04:43.811Z,67.17
2022-07-29T04:07:13.984Z,67.12
2022-07-29T04:09:41.013Z,67.11
2022-07-29T04:12:08.483Z,67.36
2022-07-29T04:14:36.110Z,67.33
2022-07-29T04:17:04.500Z,67.37
2022-07-29T04:19:31.505Z,67.30
2022-07-29T04:21:59.458Z,67.46
2022-07-29T04:24:26.745Z,67.47
2022-07-29T04:26:53.558Z,67.51
2022-07-29T04:29:21.156Z,67.58
2022-07-29T04:31:48.017Z,67.64
2022-07-29T04:34:15.210Z,67.74
2022-07-29T04:36:42.223Z,67.77
2022-07-29T04:39:09.066Z,67.77
2022-07-29T04:41:35.803Z,67.74
2022-07-29T04:44:07.112Z,67.95
2022-07-29T04:46:36.078Z,67.96
2022-07-29T04:49:04.286Z,68.04
2022-07-29T04:51:31.956Z,67.93
2022-07-29T04:53:58.689Z,67.94
2022-07-29T04:56:25.634Z,67.93
2022-07-29T04:58:52.829Z,67.91
2022-07-29T05:01:20.387Z,67.97
2022-07-29T05:03:47.590Z,67.94
2022-07-29T05:06:14.436Z,67.89
2022-07-29T05:08:42.087Z,67.75
2022-07-29T05:11:12.508Z,67.78
2022-07-29T05:13:46.047Z,67.58
2022-07-29T05:16:14.731Z,67.69
2022-07-29T05:18:42.281Z,67.44
2022-07-29T05:21:09.342Z,67.62
2022-07-29T05:23:36.303Z,67.62
2022-07-29T05:26:03.313Z,67.45
2022-07-29T05:28:34.214Z,67.51
2022-07-29T05:31:01.183Z,67.37
2022-07-29T05:33:36.074Z,67.31
2022-07-29T05:36:08.718Z,67.22
2022-07-29T05:38:36.822Z,67.04
2022-07-29T05:41:04.746Z,66.89
2022-07-29T05:43:31.717Z,66.85
2022-07-29T05:45:59.024Z,66.78
2022-07-29T05:48:26.716Z,66.38
2022-07-29T05:50:53.622Z,66.36
2022-07-29T05:53:21.144Z,66.22
2022-07-29T05:55:49.290Z,65.96
2022-07-29T05:58:16.335Z,65.96
2022-07-29T06:00:43.910Z,65.69
2022-07-29T06:03:10.966Z,65.38
2022-07-29T06:05:37.983Z,65.46
2022-07-29T06:08:08.355Z,65.16
2022-07-29T06:10:38.734Z,65.27
2022-07-29T06:13:05.983Z,65.01
2022-07-29T06:15:33.020Z,64.74
2022-07-29T06:18:01.550Z,64.63
2022-07-29T06:20:31.549Z,64.66
2022-07-29T06:22:58.687Z,64.59
2022-07-29T06:25:25.631Z,64.38
2022-07-29T06:27:53.321Z,64.18
2022-07-29T06:30:20.170Z,64.08
2022-07-29T06:32:47.486Z,64.16
2022-07-29T06:38:00.981Z,63.99
2022-07-29T06:40:46.617Z,63.94
2022-07-29T06:43:14.587Z,64.00
2022-07-29T06:45:42.639Z,63.67
2022-07-29T06:48:10.942Z,63.42
2022-07-29T06:50:37.899Z,63.29
2022-07-29T06:53:05.486Z,63.19
2022-07-29T06:55:32.265Z,63.05
2022-07-29T06:57:59.130Z,63.05
2022-07-29T07:00:26.828Z,62.88
2022-07-29T07:02:53.741Z,62.49
2022-07-29T07:05:20.814Z,62.50
2022-07-29T07:07:47.498Z,62.48
2022-07-29T07:10:14.291Z,62.30
2022-07-29T07:12:41.046Z,62.42
2022-07-29T07:15:08.294Z,62.17
2022-07-29T07:17:35.328Z,61.94
2022-07-29T07:20:02.899Z,61.73
2022-07-29T07:22:29.634Z,61.70
2022-07-29T07:24:56.675Z,61.69
2022-07-29T07:27:23.850Z,61.49
2022-07-29T07:29:50.748Z,61.26
2022-07-29T07:32:17.831Z,60.98
2022-07-29T07:34:44.832Z,60.98
2022-07-29T07:37:12.948Z,61.08
2022-07-29T07:39:39.748Z,60.97
2022-07-29T07:42:06.644Z,60.39
2022-07-29T07:44:39.056Z,60.14
2022-07-29T07:47:14.107Z,60.11
2022-07-29T07:49:42.518Z,59.72
2022-07-29T07:52:12.732Z,59.63
2022-07-29T07:54:39.683Z,59.63
2022-07-29T07:57:06.598Z,59.85
2022-07-29T07:59:33.373Z,59.69
2022-07-29T08:02:01.714Z,59.62
2022-07-29T08:04:29.591Z,59.02
2022-07-29T08:06:58.402Z,58.58
2022-07-29T08:09:29.809Z,58.32
2022-07-29T08:11:59.018Z,58.14
2022-07-29T08:14:26.600Z,58.15
2022-07-29T08:16:53.869Z,57.80
2022-07-29T08:19:21.403Z,57.00
2022-07-29T08:21:49.079Z,56.86
2022-07-29T08:24:34.836Z,56.65
2022-07-29T08:27:01.781Z,56.42
2022-07-29T08:29:28.857Z,56.11
2022-07-29T08:31:56.836Z,55.78
2022-07-29T08:34:28.025Z,55.03
2022-07-29T08:36:57.037Z,54.88
2022-07-29T08:39:24.915Z,54.51
2022-07-29T08:41:56.800Z,54.18
2022-07-29T08:44:27.525Z,53.89
2022-07-29T08:46:58.205Z,53.48
2022-07-29T08:49:25.546Z,52.54
2022-07-29T08:51:55.253Z,52.41
2022-07-29T08:54:24.656Z,52.50
2022-07-29T08:56:53.091Z,52.06
2022-07-29T08:59:25.967Z,51.49
2022-07-29T09:01:55.210Z,50.64
2022-07-29T09:04:24.885Z,50.36
2022-07-29T09:06:55.527Z,49.66
2022-07-29T09:09:22.980Z,49.10
2022-07-29T09:11:50.217Z,48.29
2022-07-29T09:14:17.186Z,48.22
2022-07-29T09:17:04.363Z,47.76
2022-07-29T09:19:37.525Z,47.88
2022-07-29T09:22:07.398Z,47.30
2022-07-29T09:24:41.103Z,46.74
2022-07-29T09:27:12.532Z,46.06
2022-07-29T09:29:40.220Z,45.72
2022-07-29T09:32:11.031Z,45.33
2022-07-29T09:34:38.712Z,45.35
2022-07-29T09:37:06.455Z,45.45
2022-07-29T09:39:34.733Z,45.54
2022-07-29T09:42:06.495Z,45.06
2022-07-29T09:44:51.387Z,44.61
2022-07-29T09:47:20.145Z,43.93
2022-07-29T09:50:00.832Z,43.39
2022-07-29T09:52:29.748Z,43.04
2022-07-29T09:55:18.012Z,42.99
2022-07-29T09:57:47.176Z,42.69
2022-07-29T10:00:19.123Z,42.41
2022-07-29T10:02:47.688Z,41.94
2022-07-29T10:05:26.081Z,41.86
2022-07-29T10:07:59.194Z,41.86
2022-07-29T10:10:28.649Z,42.24
2022-07-29T10:13:04.547Z,41.93
2022-07-29T10:15:42.030Z,41.82
2022-07-29T10:18:10.412Z,41.88
2022-07-29T10:20:38.244Z,42.05
2022-07-29T10:23:05.471Z,42.20
2022-07-29T10:25:33.197Z,42.40
2022-07-29T10:28:00.356Z,42.02
2022-07-29T10:30:28.548Z,41.63
2022-07-29T10:32:55.255Z,41.48
2022-07-29T10:35:34.423Z,41.02
2022-07-29T10:38:19.906Z,41.09
2022-07-29T10:41:08.832Z,40.58
2022-07-29T10:43:42.393Z,40.10
2022-07-29T10:46:10.110Z,39.89
2022-07-29T10:49:15.432Z,39.64
2022-07-29T10:51:52.899Z,39.51
2022-07-29T10:54:42.292Z,39.02
2022-07-29T10:57:13.022Z,39.04
2022-07-29T10:59:40.959Z,38.44
2022-07-29T11:02:42.741Z,38.50
2022-07-29T11:05:16.725Z,38.59
2022-07-29T11:08:20.146Z,38.42
2022-07-29T11:11:19.811Z,38.55
2022-07-29T11:13:55.929Z,38.47
2022-07-29T11:16:25.342Z,37.95
2022-07-29T11:19:14.763Z,37.67
2022-07-29T11:21:54.765Z,37.38
2022-07-29T11:24:32.426Z,37.10
2022-07-29T11:27:23.585Z,37.43
2022-07-29T11:30:03.479Z,37.45
2022-07-29T11:32:40.160Z,37.74
2022-07-29T11:35:38.592Z,37.74
2022-07-29T11:38:27.857Z,37.45
2022-07-29T11:41:21.656Z,37.10
2022-07-29T11:43:53.703Z,36.79
2022-07-29T11:46:48.067Z,36.74
2022-07-29T11:49:22.022Z,36.23
2022-07-29T11:52:02.841Z,36.15
2022-07-29T11:54:57.155Z,36.04
2022-07-29T11:57:22.811Z,36.10
2022-07-29T12:00:12.449Z,35.84
2022-07-29T12:02:44.965Z,35.53
2022-07-29T12:05:22.174Z,35.45
2022-07-29T12:07:51.405Z,35.42
2022-07-29T12:10:30.087Z,34.69
2022-07-29T12:12:57.956Z,34.49
2022-07-29T12:15:45.545Z,34.36
2022-07-29T12:18:16.279Z,34.44
2022-07-29T12:20:46.345Z,34.51
2022-07-29T12:23:13.722Z,34.17
2022-07-29T12:25:50.010Z,33.90
2022-07-29T12:28:26.692Z,34.11
2022-07-29T12:30:54.850Z,34.23
2022-07-29T12:33:27.724Z,34.15
2022-07-29T12:36:06.759Z,33.87
2022-07-29T12:38:36.260Z,33.73
2022-07-29T12:41:04.943Z,33.55
2022-07-29T12:43:32.929Z,33.38
2022-07-29T12:46:14.218Z,33.60
2022-07-29T12:48:43.610Z,33.69
2022-07-29T12:51:12.912Z,33.97
2022-07-29T12:53:40.770Z,34.02
2022-07-29T12:59:30.914Z,33.88
2022-07-29T13:02:00.779Z,34.03
2022-07-29T13:04:32.450Z,34.03
2022-07-29T13:07:04.773Z,34.25
2022-07-29T13:09:42.980Z,34.28
2022-07-29T13:12:12.531Z,34.55
2022-07-29T13:14:47.879Z,34.69
2022-07-29T13:17:16.903Z,34.66
2022-07-29T13:19:49.867Z,34.95
2022-07-29T13:22:20.505Z,35.03
2022-07-29T13:24:58.078Z,35.04
2022-07-29T13:27:27.226Z,35.31
2022-07-29T13:29:57.701Z,35.39
2022-07-29T13:32:27.777Z,34.57
2022-07-29T13:35:01.752Z,34.46
2022-07-29T13:37:35.232Z,34.45
2022-07-29T13:40:04.608Z,34.11
2022-07-29T13:42:33.264Z,33.40
2022-07-29T13:45:01.087Z,33.11
2022-07-29T13:47:32.467Z,33.06
2022-07-29T13:50:06.202Z,33.05
2022-07-29T13:52:34.828Z,32.70
2022-07-29T13:55:02.310Z,32.57
2022-07-29T13:57:30.314Z,32.26
2022-07-29T13:59:58.187Z,31.64
2022-07-29T14:02:25.714Z,30.84
2022-07-29T14:04:55.053Z,30.69
2022-07-29T14:07:22.842Z,30.33
2022-07-29T14:09:49.871Z,29.89
2022-07-29T14:12:16.663Z,29.26
2022-07-29T14:14:43.692Z,28.95
2022-07-29T14:17:10.894Z,28.85
2022-07-29T14:19:39.237Z,28.90
2022-07-29T14:22:08.887Z,28.99
2022-07-29T14:24:37.615Z,29.06
2022-07-29T14:27:06.121Z,29.49
2022-07-29T14:29:37.114Z,29.33
2022-07-29T14:32:06.549Z,29.36
2022-07-29T14:34:35.007Z,29.22
2022-07-29T14:37:02.095Z,28.92
2022-07-29T14:39:31.771Z,29.12
2022-07-29T14:41:59.899Z,29.14
2022-07-29T14:44:32.330Z,29.13
2022-07-29T14:47:01.498Z,28.96
2022-07-29T14:49:34.809Z,29.07
2022-07-29T14:52:01.924Z,29.37
2022-07-29T14:54:28.926Z,28.59
2022-07-29T14:56:58.758Z,28.57
2022-07-29T14:59:26.691Z,28.48
2022-07-29T15:01:53.913Z,28.16
2022-07-29T15:04:21.694Z,28.12
2022-07-29T15:06:48.883Z,27.61
2022-07-29T15:09:15.824Z,27.45
2022-07-29T15:11:42.736Z,27.35
2022-07-29T15:14:09.575Z,27.49
2022-07-29T15:16:38.811Z,27.28
2022-07-29T15:19:06.150Z,27.05
2022-07-29T15:21:33.420Z,26.67
2022-07-29T15:24:00.629Z,26.97
2022-07-29T15:26:27.912Z,27.27
2022-07-29T15:28:56.685Z,27.11
2022-07-29T15:31:23.547Z,27.35
2022-07-29T15:33:53.289Z,27.40
2022-07-29T15:36:50.230Z,27.29
2022-07-29T15:39:10.247Z,27.36
2022-07-29T15:41:37.255Z,27.62
2022-07-29T15:44:04.273Z,27.41
2022-07-29T15:46:49.727Z,27.24
2022-07-29T15:49:16.679Z,27.51
2022-07-29T15:51:43.717Z,27.79
2022-07-29T15:54:10.564Z,27.72
2022-07-29T15:56:37.712Z,28.18
2022-07-29T15:59:04.668Z,28.56
2022-07-29T16:01:31.567Z,28.99
2022-07-29T16:03:58.925Z,29.26
2022-07-29T16:06:25.745Z,29.33
2022-07-29T16:08:52.540Z,29.21
2022-07-29T16:11:19.583Z,29.57
2022-07-29T16:13:46.449Z,29.50
2022-07-29T16:16:13.242Z,29.49
2022-07-29T16:18:40.145Z,29.41
2022-07-29T16:21:06.881Z,29.64
2022-07-29T16:23:33.573Z,29.54
2022-07-29T16:26:01.236Z,29.39
2022-07-29T16:28:29.754Z,29.71
2022-07-29T16:30:57.401Z,29.90
2022-07-29T16:33:25.095Z,30.12
2022-07-29T16:35:53.065Z,30.30
2022-07-29T16:38:19.959Z,30.57
2022-07-29T16:40:47.279Z,30.63
2022-07-29T16:43:14.184Z,30.88
2022-07-29T16:45:45.770Z,30.90
2022-07-29T16:48:14.544Z,31.03
2022-07-29T16:50:43.267Z,31.21
2022-07-29T16:53:11.087Z,31.20
2022-07-29T16:55:38.833Z,31.43
2022-07-29T16:58:10.016Z,31.54
2022-07-29T17:00:36.985Z,31.71
2022-07-29T17:03:05.604Z,31.73
2022-07-29T17:05:50.786Z,32.08
2022-07-29T17:08:20.379Z,32.24
2022-07-29T17:10:47.743Z,32.25
2022-07-29T17:13:14.987Z,32.39
2022-07-29T17:15:43.290Z,32.53
2022-07-29T17:18:12.186Z,32.64
2022-07-29T17:20:41.865Z,32.72
2022-07-29T17:23:08.916Z,32.88
2022-07-29T17:25:35.891Z,33.10
2022-07-29T17:28:02.802Z,33.33
2022-07-29T17:30:30.156Z,33.58
2022-07-29T17:32:57.512Z,33.91
2022-07-29T17:35:43.066Z,34.09
2022-07-29T17:38:09.963Z,34.35
2022-07-29T17:40:37.450Z,34.22
2022-07-29T17:43:05.086Z,34.42
2022-07-29T17:45:49.111Z,34.61
2022-07-29T17:48:18.811Z,34.78
2022-07-29T17:50:47.029Z,35.13
2022-07-29T17:53:16.180Z,35.17
2022-07-29T17:55:48.933Z,35.27
2022-07-29T17:58:16.637Z,35.53
2022-07-29T18:00:44.490Z,35.79
2022-07-29T18:03:11.718Z,35.99
2022-07-29T18:05:38.725Z,36.14
2022-07-29T18:08:05.581Z,36.47
2022-07-29T18:10:32.495Z,36.65
2022-07-29T18:12:59.242Z,36.72
2022-07-29T18:15:25.969Z,37.07
2022-07-29T18:17:57.529Z,36.98
2022-07-29T18:20:26.403Z,37.29
2022-07-29T18:22:53.528Z,37.42
2022-07-29T18:25:21.131Z,37.78
2022-07-29T18:27:48.061Z,38.08
2022-07-29T18:30:17.567Z,37.86
2022-07-29T18:32:59.158Z,38.27
2022-07-29T18:35:32.263Z,38.53
2022-07-29T18:38:02.111Z,38.65
2022-07-29T18:40:30.458Z,39.07
2022-07-29T18:42:57.293Z,39.01
2022-07-29T18:45:28.548Z,39.05
2022-07-29T18:47:56.727Z,39.36
2022-07-29T18:50:29.196Z,39.49
2022-07-29T18:52:59.005Z,39.73
2022-07-29T18:55:26.741Z,39.80
2022-07-29T18:57:56.669Z,40.06
2022-07-29T19:00:25.766Z,40.22
2022-07-29T19:02:53.295Z,40.24
2022-07-29T19:05:21.189Z,40.53
2022-07-29T19:07:48.131Z,40.56
2022-07-29T19:10:15.071Z,40.66
2022-07-29T19:12:42.765Z,40.26
2022-07-29T19:15:10.839Z,40.55
2022-07-29T19:17:38.886Z,40.66
2022-07-29T19:20:07.480Z,40.55
2022-07-29T19:22:34.955Z,40.75
2022-07-29T19:25:01.862Z,40.84
2022-07-29T19:27:28.659Z,40.88
2022-07-29T19:29:58.968Z,40.73
2022-07-29T19:32:26.507Z,40.76
2022-07-29T19:35:12.493Z,40.65
2022-07-29T19:37:39.314Z,40.87
2022-07-29T19:40:07.057Z,40.67
2022-07-29T19:42:34.234Z,40.91
2022-07-29T19:45:00.995Z,40.96
2022-07-29T19:47:27.875Z,41.14
2022-07-29T19:49:54.791Z,41.07
2022-07-29T19:52:21.844Z,41.18
2022-07-29T19:54:48.767Z,41.22
2022-07-29T19:57:15.683Z,41.39
2022-07-29T19:59:43.140Z,41.39
2022-07-29T20:02:12.661Z,41.57
2022-07-29T20:04:40.643Z,41.68
2022-07-29T20:07:07.763Z,41.83
2022-07-29T20:09:34.893Z,41.85
2022-07-29T20:12:01.869Z,42.08
2022-07-29T20:14:29.123Z,42.23
2022-07-29T20:16:55.971Z,42.47
2022-07-29T20:19:22.812Z,42.44
2022-07-29T20:21:51.701Z,42.48
2022-07-29T20:24:19.685Z,42.70
2022-07-29T20:26:47.559Z,42.73
2022-07-29T20:29:14.586Z,42.98
2022-07-29T20:31:43.506Z,42.81
2022-07-29T20:34:10.723Z,42.92
2022-07-29T20:36:38.009Z,43.03
2022-07-29T20:39:05.236Z,43.14
2022-07-29T20:41:33.926Z,43.32
2022-07-29T20:44:02.398Z,43.45
2022-07-29T20:46:29.760Z,43.69
2022-07-29T20:48:57.145Z,43.52
2022-07-29T20:51:24.568Z,43.74
2022-07-29T20:53:51.439Z,43.67
2022-07-29T20:56:18.400Z,43.68
2022-07-29T20:58:45.236Z,43.90
2022-07-29T21:01:12.194Z,43.89
2022-07-29T21:03:39.288Z,44.14
2022-07-29T21:06:06.444Z,44.15
2022-07-29T21:08:33.485Z,44.05
2022-07-29T21:11:00.448Z,44.25
2022-07-29T21:13:27.460Z,44.26
2022-07-29T21:15:58.838Z,44.35
2022-07-29T21:18:32.454Z,44.49
2022-07-29T21:21:01.037Z,44.65
2022-07-29T21:23:28.178Z,44.77
2022-07-29T21:25:55.127Z,44.87
2022-07-29T21:28:37.104Z,44.95
2022-07-29T21:31:09.830Z,44.95
2022-07-29T21:33:37.495Z,45.04
2022-07-29T21:36:35.414Z,45.12
2022-07-29T21:38:51.608Z,45.25
2022-07-29T21:41:19.273Z,45.34
2022-07-29T21:43:46.521Z,45.22
2022-07-29T21:46:13.357Z,45.22
2022-07-29T21:48:44.404Z,45.38
2022-07-29T21:51:11.865Z,45.28
2022-07-29T21:53:38.808Z,45.42
2022-07-29T21:56:07.659Z,45.54
2022-07-29T21:58:41.300Z,45.58
2022-07-29T22:01:08.376Z,45.69
2022-07-29T22:03:35.297Z,45.73
2022-07-29T22:06:02.340Z,45.80
2022-07-29T22:08:29.070Z,45.73
2022-07-29T22:10:55.805Z,45.86
2022-07-29T22:13:22.540Z,45.90
2022-07-29T22:15:49.417Z,45.95
2022-07-29T22:18:20.978Z,46.03
2022-07-29T22:20:49.860Z,46.00
2022-07-29T22:23:16.797Z,46.02
2022-07-29T22:25:43.738Z,46.12
2022-07-29T22:28:10.764Z,46.13
2022-07-29T22:30:37.774Z,46.36
2022-07-29T22:33:04.782Z,46.37
2022-07-29T22:35:31.621Z,46.37
2022-07-29T22:37:58.462Z,46.46
2022-07-29T22:40:30.749Z,46.52
2022-07-29T22:42:59.674Z,46.62
2022-07-29T22:45:26.622Z,46.71
2022-07-29T22:47:59.137Z,46.78
2022-07-29T22:50:26.704Z,46.82
2022-07-29T22:52:53.429Z,46.91
2022-07-29T22:55:20.598Z,46.95
2022-07-29T22:57:47.441Z,47.02
2022-07-29T23:00:15.160Z,47.06
2022-07-29T23:02:42.152Z,47.25
2022-07-29T23:05:10.422Z,47.44
2022-07-29T23:07:37.470Z,47.31
2022-07-29T23:10:05.051Z,47.38
2022-07-29T23:12:31.896Z,47.32
2022-07-29T23:14:58.816Z,47.26
2022-07-29T23:17:25.659Z,47.40
2022-07-29T23:19:52.640Z,47.31
2022-07-29T23:22:19.554Z,47.48
2022-07-29T23:24:46.512Z,47.39
2022-07-29T23:27:13.315Z,47.28
2022-07-29T23:29:40.592Z,47.29
2022-07-29T23:32:07.476Z,47.26
2022-07-29T23:34:34.313Z,47.34
2022-07-29T23:37:01.572Z,47.37
2022-07-29T23:39:28.596Z,47.36
2022-07-29T23:41:55.352Z,47.35
2022-07-29T23:44:22.169Z,47.41
2022-07-29T23:46:49.009Z,47.36
2022-07-29T23:49:16.308Z,47.48
2022-07-29T23:51:43.199Z,47.54
2022-07-29T23:54:10.054Z,47.65
2022-07-29T23:56:36.815Z,47.58
2022-07-29T23:59:05.854Z,47.61
